sensor_id;sensor_type;location;lat;lon;timestamp;temperature;humidity
52621;DHT22;38515;53.160;6.990;2023-07-13T00:01:58;14.10;99.90
52621;DHT22;38515;53.160;6.990;2023-07-13T00:04:25;14.10;99.90
52621;DHT22;38515;53.160;6.990;2023-07-13T00:06:51;14.10;99.90
52621;DHT22;38515;53.160;6.990;2023-07-13T00:09:19;14.10;99.90
52621;DHT22;38515;53.160;6.990;2023-07-13T00:11:49;14.20;99.90
52621;DHT22;38515;53.160;6.990;2023-07-13T00:14:15;14.10;99.90
52621;DHT22;38515;53.160;6.990;2023-07-13T00:16:41;14.10;99.90
52621;DHT22;38515;53.160;6.990;2023-07-13T00:19:11;14.10;99.90
52621;DHT22;38515;53.160;6.990;2023-07-13T00:21:40;14.10;99.90
52621;DHT22;38515;53.160;6.990;2023-07-13T00:24:08;14.10;99.90
52621;DHT22;38515;53.160;6.990;2023-07-13T00:26:41;14.00;99.90
52621;DHT22;38515;53.160;6.990;2023-07-13T00:29:10;14.00;99.90
52621;DHT22;38515;53.160;6.990;2023-07-13T00:31:36;14.00;99.90
52621;DHT22;38515;53.160;6.990;2023-07-13T00:34:02;14.00;99.90
52621;DHT22;38515;53.160;6.990;2023-07-13T00:36:30;14.00;99.90
52621;DHT22;38515;53.160;6.990;2023-07-13T00:38:56;14.00;99.90
52621;DHT22;38515;53.160;6.990;2023-07-13T00:41:25;14.10;99.90
52621;DHT22;38515;53.160;6.990;2023-07-13T00:43:51;14.10;99.90
52621;DHT22;38515;53.160;6.990;2023-07-13T00:46:22;14.10;99.90
52621;DHT22;38515;53.160;6.990;2023-07-13T00:48:50;14.20;99.90
52621;DHT22;38515;53.160;6.990;2023-07-13T00:51:23;14.20;99.90
52621;DHT22;38515;53.160;6.990;2023-07-13T00:53:53;14.20;99.90
52621;DHT22;38515;53.160;6.990;2023-07-13T00:56:19;14.30;99.90
52621;DHT22;38515;53.160;6.990;2023-07-13T00:58:46;14.30;99.90
52621;DHT22;38515;53.160;6.990;2023-07-13T01:01:12;14.30;99.90
52621;DHT22;38515;53.160;6.990;2023-07-13T01:03:38;14.40;99.90
52621;DHT22;38515;53.160;6.990;2023-07-13T01:06:06;14.40;99.90
52621;DHT22;38515;53.160;6.990;2023-07-13T01:08:32;14.50;99.90
52621;DHT22;38515;53.160;6.990;2023-07-13T01:10:58;14.50;99.90
52621;DHT22;38515;53.160;6.990;2023-07-13T01:13:25;14.50;99.90
52621;DHT22;38515;53.160;6.990;2023-07-13T01:15:53;14.60;99.90
52621;DHT22;38515;53.160;6.990;2023-07-13T01:18:25;14.60;99.90
52621;DHT22;38515;53.160;6.990;2023-07-13T01:20:57;14.60;99.90
52621;DHT22;38515;53.160;6.990;2023-07-13T01:23:24;14.60;99.90
52621;DHT22;38515;53.160;6.990;2023-07-13T01:25:50;14.70;99.90
52621;DHT22;38515;53.160;6.990;2023-07-13T01:28:16;14.70;99.90
52621;DHT22;38515;53.160;6.990;2023-07-13T01:30:44;14.70;99.90
52621;DHT22;38515;53.160;6.990;2023-07-13T01:33:16;14.70;99.90
52621;DHT22;38515;53.160;6.990;2023-07-13T01:35:43;14.70;99.90
52621;DHT22;38515;53.160;6.990;2023-07-13T01:38:10;14.40;99.90
52621;DHT22;38515;53.160;6.990;2023-07-13T01:40:37;14.80;99.90
52621;DHT22;38515;53.160;6.990;2023-07-13T01:43:06;14.80;99.90
52621;DHT22;38515;53.160;6.990;2023-07-13T01:45:32;14.80;99.90
52621;DHT22;38515;53.160;6.990;2023-07-13T01:47:59;14.80;99.90
52621;DHT22;38515;53.160;6.990;2023-07-13T01:50:25;14.90;99.90
52621;DHT22;38515;53.160;6.990;2023-07-13T01:52:51;14.90;99.90
52621;DHT22;38515;53.160;6.990;2023-07-13T01:55:17;14.90;99.90
52621;DHT22;38515;53.160;6.990;2023-07-13T01:57:44;14.90;99.90
52621;DHT22;38515;53.160;6.990;2023-07-13T02:00:11;14.90;99.90
52621;DHT22;38515;53.160;6.990;2023-07-13T02:02:37;14.90;99.90
52621;DHT22;38515;53.160;6.990;2023-07-13T02:05:03;14.90;99.90
52621;DHT22;38515;53.160;6.990;2023-07-13T02:07:29;14.90;99.90
52621;DHT22;38515;53.160;6.990;2023-07-13T02:09:54;14.90;99.90
52621;DHT22;38515;53.160;6.990;2023-07-13T02:12:20;14.90;99.90
52621;DHT22;38515;53.160;6.990;2023-07-13T02:14:46;15.00;99.90
52621;DHT22;38515;53.160;6.990;2023-07-13T02:17:12;15.00;99.90
52621;DHT22;38515;53.160;6.990;2023-07-13T02:19:38;15.00;99.90
52621;DHT22;38515;53.160;6.990;2023-07-13T02:22:04;15.00;99.90
52621;DHT22;38515;53.160;6.990;2023-07-13T02:24:30;15.00;99.90
52621;DHT22;38515;53.160;6.990;2023-07-13T02:26:56;15.00;99.90
52621;DHT22;38515;53.160;6.990;2023-07-13T02:29:22;15.00;99.90
52621;DHT22;38515;53.160;6.990;2023-07-13T02:31:49;15.00;99.90
52621;DHT22;38515;53.160;6.990;2023-07-13T02:34:15;15.00;99.90
52621;DHT22;38515;53.160;6.990;2023-07-13T02:36:41;15.00;99.90
52621;DHT22;38515;53.160;6.990;2023-07-13T02:39:07;15.00;99.90
52621;DHT22;38515;53.160;6.990;2023-07-13T02:41:33;15.00;99.90
52621;DHT22;38515;53.160;6.990;2023-07-13T02:43:59;15.00;99.90
52621;DHT22;38515;53.160;6.990;2023-07-13T02:46:30;15.00;99.90
52621;DHT22;38515;53.160;6.990;2023-07-13T02:48:56;15.00;99.90
52621;DHT22;38515;53.160;6.990;2023-07-13T02:51:22;15.00;99.90
52621;DHT22;38515;53.160;6.990;2023-07-13T02:53:49;15.00;99.90
52621;DHT22;38515;53.160;6.990;2023-07-13T02:56:15;15.00;99.90
52621;DHT22;38515;53.160;6.990;2023-07-13T02:58:40;15.00;99.90
52621;DHT22;38515;53.160;6.990;2023-07-13T03:01:09;15.00;99.90
52621;DHT22;38515;53.160;6.990;2023-07-13T03:03:35;15.00;99.90
52621;DHT22;38515;53.160;6.990;2023-07-13T03:06:02;15.00;99.90
52621;DHT22;38515;53.160;6.990;2023-07-13T03:08:29;15.00;99.90
52621;DHT22;38515;53.160;6.990;2023-07-13T03:11:03;15.00;99.90
52621;DHT22;38515;53.160;6.990;2023-07-13T03:13:31;15.00;99.90
52621;DHT22;38515;53.160;6.990;2023-07-13T03:15:57;14.90;99.90
52621;DHT22;38515;53.160;6.990;2023-07-13T03:18:23;14.90;99.90
52621;DHT22;38515;53.160;6.990;2023-07-13T03:20:52;14.90;99.90
52621;DHT22;38515;53.160;6.990;2023-07-13T03:23:19;14.90;99.90
52621;DHT22;38515;53.160;6.990;2023-07-13T03:25:45;14.90;99.90
52621;DHT22;38515;53.160;6.990;2023-07-13T03:28:12;14.90;99.90
52621;DHT22;38515;53.160;6.990;2023-07-13T03:30:38;14.90;99.90
52621;DHT22;38515;53.160;6.990;2023-07-13T03:33:04;14.80;99.90
52621;DHT22;38515;53.160;6.990;2023-07-13T03:35:31;14.80;99.90
52621;DHT22;38515;53.160;6.990;2023-07-13T03:37:58;14.80;99.90
52621;DHT22;38515;53.160;6.990;2023-07-13T03:40:25;14.80;99.90
52621;DHT22;38515;53.160;6.990;2023-07-13T03:42:52;14.80;99.90
52621;DHT22;38515;53.160;6.990;2023-07-13T03:45:18;14.70;99.90
52621;DHT22;38515;53.160;6.990;2023-07-13T03:47:45;14.70;99.90
52621;DHT22;38515;53.160;6.990;2023-07-13T03:50:11;14.70;99.90
52621;DHT22;38515;53.160;6.990;2023-07-13T03:52:37;14.60;99.90
52621;DHT22;38515;53.160;6.990;2023-07-13T03:55:03;14.60;99.90
52621;DHT22;38515;53.160;6.990;2023-07-13T03:57:30;14.60;99.90
52621;DHT22;38515;53.160;6.990;2023-07-13T03:59:56;14.60;99.90
52621;DHT22;38515;53.160;6.990;2023-07-13T04:02:22;14.60;99.90
52621;DHT22;38515;53.160;6.990;2023-07-13T04:04:48;14.60;99.90
52621;DHT22;38515;53.160;6.990;2023-07-13T04:07:14;14.60;99.90
52621;DHT22;38515;53.160;6.990;2023-07-13T04:09:40;14.60;99.90
52621;DHT22;38515;53.160;6.990;2023-07-13T04:12:06;14.60;99.90
52621;DHT22;38515;53.160;6.990;2023-07-13T04:14:32;14.60;99.90
52621;DHT22;38515;53.160;6.990;2023-07-13T04:16:58;14.70;99.90
52621;DHT22;38515;53.160;6.990;2023-07-13T04:19:24;14.70;99.90
52621;DHT22;38515;53.160;6.990;2023-07-13T04:21:50;14.70;99.90
52621;DHT22;38515;53.160;6.990;2023-07-13T04:24:16;14.70;99.90
52621;DHT22;38515;53.160;6.990;2023-07-13T04:26:42;14.80;99.90
52621;DHT22;38515;53.160;6.990;2023-07-13T04:29:07;14.80;99.90
52621;DHT22;38515;53.160;6.990;2023-07-13T04:31:33;14.70;99.90
52621;DHT22;38515;53.160;6.990;2023-07-13T04:34:00;14.80;99.90
52621;DHT22;38515;53.160;6.990;2023-07-13T04:36:26;14.80;99.90
52621;DHT22;38515;53.160;6.990;2023-07-13T04:38:54;14.80;99.90
52621;DHT22;38515;53.160;6.990;2023-07-13T04:41:21;14.80;99.90
52621;DHT22;38515;53.160;6.990;2023-07-13T04:43:47;14.90;99.90
52621;DHT22;38515;53.160;6.990;2023-07-13T04:46:15;15.00;99.90
52621;DHT22;38515;53.160;6.990;2023-07-13T04:48:43;15.00;99.90
52621;DHT22;38515;53.160;6.990;2023-07-13T04:51:09;15.10;99.90
52621;DHT22;38515;53.160;6.990;2023-07-13T04:53:35;15.10;99.90
52621;DHT22;38515;53.160;6.990;2023-07-13T04:56:02;15.20;99.90
52621;DHT22;38515;53.160;6.990;2023-07-13T04:58:29;15.20;99.90
52621;DHT22;38515;53.160;6.990;2023-07-13T05:01:00;15.30;99.90
52621;DHT22;38515;53.160;6.990;2023-07-13T05:03:26;15.40;99.90
52621;DHT22;38515;53.160;6.990;2023-07-13T05:06:03;15.40;99.90
52621;DHT22;38515;53.160;6.990;2023-07-13T05:08:30;15.40;99.90
52621;DHT22;38515;53.160;6.990;2023-07-13T05:10:55;15.50;99.90
52621;DHT22;38515;53.160;6.990;2023-07-13T05:13:22;15.50;99.90
52621;DHT22;38515;53.160;6.990;2023-07-13T05:16:00;15.60;99.90
52621;DHT22;38515;53.160;6.990;2023-07-13T05:18:27;15.70;99.90
52621;DHT22;38515;53.160;6.990;2023-07-13T05:21:06;15.70;99.90
52621;DHT22;38515;53.160;6.990;2023-07-13T05:23:33;15.80;99.90
52621;DHT22;38515;53.160;6.990;2023-07-13T05:25:59;15.80;99.90
52621;DHT22;38515;53.160;6.990;2023-07-13T05:28:26;16.00;99.90
52621;DHT22;38515;53.160;6.990;2023-07-13T05:30:52;16.10;99.90
52621;DHT22;38515;53.160;6.990;2023-07-13T05:33:20;16.10;99.90
52621;DHT22;38515;53.160;6.990;2023-07-13T05:35:46;16.30;99.90
52621;DHT22;38515;53.160;6.990;2023-07-13T05:38:12;16.40;99.90
52621;DHT22;38515;53.160;6.990;2023-07-13T05:40:38;16.50;99.90
52621;DHT22;38515;53.160;6.990;2023-07-13T05:43:04;16.70;99.90
52621;DHT22;38515;53.160;6.990;2023-07-13T05:45:30;16.70;99.90
52621;DHT22;38515;53.160;6.990;2023-07-13T05:47:56;16.80;99.90
52621;DHT22;38515;53.160;6.990;2023-07-13T05:50:22;16.90;99.90
52621;DHT22;38515;53.160;6.990;2023-07-13T05:52:51;17.20;99.90
52621;DHT22;38515;53.160;6.990;2023-07-13T05:55:18;17.50;99.90
52621;DHT22;38515;53.160;6.990;2023-07-13T05:57:44;18.00;99.90
52621;DHT22;38515;53.160;6.990;2023-07-13T06:00:11;18.30;99.90
52621;DHT22;38515;53.160;6.990;2023-07-13T06:02:37;18.70;99.90
52621;DHT22;38515;53.160;6.990;2023-07-13T06:05:03;19.00;99.90
52621;DHT22;38515;53.160;6.990;2023-07-13T06:07:29;19.30;99.90
52621;DHT22;38515;53.160;6.990;2023-07-13T06:09:55;19.50;99.90
52621;DHT22;38515;53.160;6.990;2023-07-13T06:12:21;19.70;99.90
52621;DHT22;38515;53.160;6.990;2023-07-13T06:14:47;19.80;99.90
52621;DHT22;38515;53.160;6.990;2023-07-13T06:17:13;20.10;99.90
52621;DHT22;38515;53.160;6.990;2023-07-13T06:19:39;20.40;99.90
52621;DHT22;38515;53.160;6.990;2023-07-13T06:22:05;20.70;99.90
52621;DHT22;38515;53.160;6.990;2023-07-13T06:24:31;21.00;99.90
52621;DHT22;38515;53.160;6.990;2023-07-13T06:26:57;21.20;99.90
52621;DHT22;38515;53.160;6.990;2023-07-13T06:29:23;21.30;99.90
52621;DHT22;38515;53.160;6.990;2023-07-13T06:31:49;21.40;99.90
52621;DHT22;38515;53.160;6.990;2023-07-13T06:34:15;21.40;99.90
52621;DHT22;38515;53.160;6.990;2023-07-13T06:36:49;21.40;99.90
52621;DHT22;38515;53.160;6.990;2023-07-13T06:39:15;21.10;99.90
52621;DHT22;38515;53.160;6.990;2023-07-13T06:41:41;20.90;99.90
52621;DHT22;38515;53.160;6.990;2023-07-13T06:44:07;20.80;99.90
52621;DHT22;38515;53.160;6.990;2023-07-13T06:46:33;20.70;99.90
52621;DHT22;38515;53.160;6.990;2023-07-13T06:48:58;20.70;99.90
52621;DHT22;38515;53.160;6.990;2023-07-13T06:51:24;20.70;99.90
52621;DHT22;38515;53.160;6.990;2023-07-13T06:53:51;20.80;99.90
52621;DHT22;38515;53.160;6.990;2023-07-13T06:56:17;21.00;99.90
52621;DHT22;38515;53.160;6.990;2023-07-13T06:58:43;21.00;99.90
52621;DHT22;38515;53.160;6.990;2023-07-13T07:01:09;21.20;99.90
52621;DHT22;38515;53.160;6.990;2023-07-13T07:03:35;21.30;99.90
52621;DHT22;38515;53.160;6.990;2023-07-13T07:06:27;21.10;99.90
52621;DHT22;38515;53.160;6.990;2023-07-13T07:08:53;21.00;99.90
52621;DHT22;38515;53.160;6.990;2023-07-13T07:11:23;21.00;99.90
52621;DHT22;38515;53.160;6.990;2023-07-13T07:13:50;21.00;99.90
52621;DHT22;38515;53.160;6.990;2023-07-13T07:16:16;20.80;99.90
52621;DHT22;38515;53.160;6.990;2023-07-13T07:18:43;20.70;99.90
52621;DHT22;38515;53.160;6.990;2023-07-13T07:21:09;20.60;99.90
52621;DHT22;38515;53.160;6.990;2023-07-13T07:23:35;20.70;99.90
52621;DHT22;38515;53.160;6.990;2023-07-13T07:26:01;20.90;99.90
52621;DHT22;38515;53.160;6.990;2023-07-13T07:28:27;21.00;99.90
52621;DHT22;38515;53.160;6.990;2023-07-13T07:30:57;20.90;99.90
52621;DHT22;38515;53.160;6.990;2023-07-13T07:33:24;20.50;99.90
52621;DHT22;38515;53.160;6.990;2023-07-13T07:35:51;20.30;99.90
52621;DHT22;38515;53.160;6.990;2023-07-13T07:38:17;20.20;99.90
52621;DHT22;38515;53.160;6.990;2023-07-13T07:40:44;20.20;99.90
52621;DHT22;38515;53.160;6.990;2023-07-13T07:43:11;20.40;99.90
52621;DHT22;38515;53.160;6.990;2023-07-13T07:45:39;20.50;99.90
52621;DHT22;38515;53.160;6.990;2023-07-13T07:48:05;20.40;99.90
52621;DHT22;38515;53.160;6.990;2023-07-13T07:50:32;20.20;99.90
52621;DHT22;38515;53.160;6.990;2023-07-13T07:52:58;20.10;99.90
52621;DHT22;38515;53.160;6.990;2023-07-13T07:55:25;19.90;99.90
52621;DHT22;38515;53.160;6.990;2023-07-13T07:57:56;19.80;99.90
52621;DHT22;38515;53.160;6.990;2023-07-13T08:00:22;19.70;99.90
52621;DHT22;38515;53.160;6.990;2023-07-13T08:02:52;19.50;99.90
52621;DHT22;38515;53.160;6.990;2023-07-13T08:05:21;19.50;99.90
52621;DHT22;38515;53.160;6.990;2023-07-13T08:07:47;19.40;99.90
52621;DHT22;38515;53.160;6.990;2023-07-13T08:10:13;19.30;99.90
52621;DHT22;38515;53.160;6.990;2023-07-13T08:12:40;19.30;99.90
52621;DHT22;38515;53.160;6.990;2023-07-13T08:15:09;19.50;99.90
52621;DHT22;38515;53.160;6.990;2023-07-13T08:17:35;19.90;99.90
52621;DHT22;38515;53.160;6.990;2023-07-13T08:20:01;20.00;99.90
52621;DHT22;38515;53.160;6.990;2023-07-13T08:22:27;20.10;99.90
52621;DHT22;38515;53.160;6.990;2023-07-13T08:24:56;20.10;99.90
52621;DHT22;38515;53.160;6.990;2023-07-13T08:27:22;20.10;99.90
52621;DHT22;38515;53.160;6.990;2023-07-13T08:29:50;20.10;99.90
52621;DHT22;38515;53.160;6.990;2023-07-13T08:32:17;19.90;99.90
52621;DHT22;38515;53.160;6.990;2023-07-13T08:34:47;20.10;99.90
52621;DHT22;38515;53.160;6.990;2023-07-13T08:37:13;20.00;99.90
52621;DHT22;38515;53.160;6.990;2023-07-13T08:39:39;19.90;99.90
52621;DHT22;38515;53.160;6.990;2023-07-13T08:42:17;19.70;99.90
52621;DHT22;38515;53.160;6.990;2023-07-13T08:45:08;19.60;99.90
52621;DHT22;38515;53.160;6.990;2023-07-13T08:47:48;19.30;99.90
52621;DHT22;38515;53.160;6.990;2023-07-13T08:50:18;19.00;99.90
52621;DHT22;38515;53.160;6.990;2023-07-13T08:52:46;18.80;99.90
52621;DHT22;38515;53.160;6.990;2023-07-13T08:55:14;18.70;99.90
52621;DHT22;38515;53.160;6.990;2023-07-13T08:57:42;18.70;99.90
52621;DHT22;38515;53.160;6.990;2023-07-13T09:00:11;18.60;99.90
52621;DHT22;38515;53.160;6.990;2023-07-13T09:02:56;18.60;99.90
52621;DHT22;38515;53.160;6.990;2023-07-13T09:05:38;18.70;99.90
52621;DHT22;38515;53.160;6.990;2023-07-13T09:11:17;18.70;99.90
52621;DHT22;38515;53.160;6.990;2023-07-13T09:16:24;18.50;99.90
52621;DHT22;38515;53.160;6.990;2023-07-13T09:18:54;18.50;99.90
52621;DHT22;38515;53.160;6.990;2023-07-13T09:21:25;18.40;99.90
52621;DHT22;38515;53.160;6.990;2023-07-13T09:24:36;18.30;99.90
52621;DHT22;38515;53.160;6.990;2023-07-13T09:26:59;18.20;99.90
52621;DHT22;38515;53.160;6.990;2023-07-13T09:29:32;17.90;99.90
52621;DHT22;38515;53.160;6.990;2023-07-13T09:32:04;17.70;99.90
52621;DHT22;38515;53.160;6.990;2023-07-13T09:34:33;17.60;99.90
52621;DHT22;38515;53.160;6.990;2023-07-13T09:36:59;17.40;99.90
52621;DHT22;38515;53.160;6.990;2023-07-13T09:39:31;17.40;99.90
52621;DHT22;38515;53.160;6.990;2023-07-13T09:42:17;17.70;99.90
52621;DHT22;38515;53.160;6.990;2023-07-13T09:44:58;18.00;99.90
52621;DHT22;38515;53.160;6.990;2023-07-13T09:47:27;18.30;99.90
52621;DHT22;38515;53.160;6.990;2023-07-13T09:50:02;18.40;99.90
52621;DHT22;38515;53.160;6.990;2023-07-13T09:52:48;18.50;99.90
52621;DHT22;38515;53.160;6.990;2023-07-13T09:55:31;18.50;99.90
52621;DHT22;38515;53.160;6.990;2023-07-13T09:57:59;18.50;99.90
52621;DHT22;38515;53.160;6.990;2023-07-13T10:00:29;18.50;99.90
52621;DHT22;38515;53.160;6.990;2023-07-13T10:03:17;18.50;99.90
52621;DHT22;38515;53.160;6.990;2023-07-13T10:05:44;18.70;99.90
52621;DHT22;38515;53.160;6.990;2023-07-13T10:08:21;19.00;99.90
52621;DHT22;38515;53.160;6.990;2023-07-13T10:13:43;19.80;99.90
52621;DHT22;38515;53.160;6.990;2023-07-13T10:16:10;20.30;99.90
52621;DHT22;38515;53.160;6.990;2023-07-13T10:18:46;20.50;99.90
52621;DHT22;38515;53.160;6.990;2023-07-13T10:21:15;20.70;99.90
52621;DHT22;38515;53.160;6.990;2023-07-13T10:23:42;20.60;99.90
52621;DHT22;38515;53.160;6.990;2023-07-13T10:26:26;20.60;99.90
52621;DHT22;38515;53.160;6.990;2023-07-13T10:28:57;20.50;99.90
52621;DHT22;38515;53.160;6.990;2023-07-13T10:31:25;20.60;99.90
52621;DHT22;38515;53.160;6.990;2023-07-13T10:34:11;20.60;99.90
52621;DHT22;38515;53.160;6.990;2023-07-13T10:36:43;20.40;99.90
52621;DHT22;38515;53.160;6.990;2023-07-13T10:39:20;20.10;99.90
52621;DHT22;38515;53.160;6.990;2023-07-13T10:42:24;19.90;99.90
52621;DHT22;38515;53.160;6.990;2023-07-13T10:44:40;19.80;99.90
52621;DHT22;38515;53.160;6.990;2023-07-13T10:47:13;19.70;99.90
52621;DHT22;38515;53.160;6.990;2023-07-13T10:49:42;19.80;99.90
52621;DHT22;38515;53.160;6.990;2023-07-13T10:52:45;20.00;99.90
52621;DHT22;38515;53.160;6.990;2023-07-13T10:55:39;20.20;99.90
52621;DHT22;38515;53.160;6.990;2023-07-13T11:01:13;20.10;99.90
52621;DHT22;38515;53.160;6.990;2023-07-13T11:04:01;20.10;99.90
52621;DHT22;38515;53.160;6.990;2023-07-13T11:09:24;20.70;99.90
52621;DHT22;38515;53.160;6.990;2023-07-13T11:12:00;21.00;99.90
52621;DHT22;38515;53.160;6.990;2023-07-13T11:22:49;20.40;99.90
52621;DHT22;38515;53.160;6.990;2023-07-13T11:25:30;20.60;99.90
52621;DHT22;38515;53.160;6.990;2023-07-13T11:28:17;20.90;99.90
52621;DHT22;38515;53.160;6.990;2023-07-13T11:31:01;21.10;99.90
52621;DHT22;38515;53.160;6.990;2023-07-13T11:36:16;21.40;99.90
52621;DHT22;38515;53.160;6.990;2023-07-13T11:38:45;21.40;99.90
52621;DHT22;38515;53.160;6.990;2023-07-13T11:41:16;21.50;99.90
52621;DHT22;38515;53.160;6.990;2023-07-13T11:43:43;21.40;99.90
52621;DHT22;38515;53.160;6.990;2023-07-13T11:46:22;21.40;99.90
52621;DHT22;38515;53.160;6.990;2023-07-13T11:48:50;21.40;99.90
52621;DHT22;38515;53.160;6.990;2023-07-13T11:51:29;21.40;99.90
52621;DHT22;38515;53.160;6.990;2023-07-13T11:54:05;21.50;99.90
52621;DHT22;38515;53.160;6.990;2023-07-13T11:56:31;21.50;99.90
52621;DHT22;38515;53.160;6.990;2023-07-13T11:59:05;21.60;99.90
52621;DHT22;38515;53.160;6.990;2023-07-13T12:01:32;21.60;99.90
52621;DHT22;38515;53.160;6.990;2023-07-13T12:04:03;21.60;99.90
52621;DHT22;38515;53.160;6.990;2023-07-13T12:06:34;21.70;99.90
52621;DHT22;38515;53.160;6.990;2023-07-13T12:09:12;21.60;99.90
52621;DHT22;38515;53.160;6.990;2023-07-13T12:11:41;21.40;99.90
52621;DHT22;38515;53.160;6.990;2023-07-13T12:14:14;21.20;99.90
52621;DHT22;38515;53.160;6.990;2023-07-13T12:16:42;21.00;99.90
52621;DHT22;38515;53.160;6.990;2023-07-13T12:19:25;21.00;99.90
52621;DHT22;38515;53.160;6.990;2023-07-13T12:21:54;21.00;99.90
52621;DHT22;38515;53.160;6.990;2023-07-13T12:24:22;20.80;99.90
52621;DHT22;38515;53.160;6.990;2023-07-13T12:27:22;20.80;99.90
52621;DHT22;38515;53.160;6.990;2023-07-13T12:29:59;20.70;99.90
52621;DHT22;38515;53.160;6.990;2023-07-13T12:32:26;20.80;99.90
52621;DHT22;38515;53.160;6.990;2023-07-13T12:35:12;20.80;99.90
52621;DHT22;38515;53.160;6.990;2023-07-13T12:37:48;20.80;99.90
52621;DHT22;38515;53.160;6.990;2023-07-13T12:40:20;20.70;99.90
52621;DHT22;38515;53.160;6.990;2023-07-13T12:42:49;20.70;99.90
52621;DHT22;38515;53.160;6.990;2023-07-13T12:47:48;21.10;99.90
52621;DHT22;38515;53.160;6.990;2023-07-13T12:50:17;21.30;99.90
52621;DHT22;38515;53.160;6.990;2023-07-13T12:52:44;21.50;99.20
52621;DHT22;38515;53.160;6.990;2023-07-13T12:55:14;21.60;99.90
52621;DHT22;38515;53.160;6.990;2023-07-13T12:57:56;21.50;99.90
52621;DHT22;38515;53.160;6.990;2023-07-13T13:00:25;21.20;98.10
52621;DHT22;38515;53.160;6.990;2023-07-13T13:02:54;20.90;99.60
52621;DHT22;38515;53.160;6.990;2023-07-13T13:05:22;21.00;99.80
52621;DHT22;38515;53.160;6.990;2023-07-13T13:07:50;21.10;99.80
52621;DHT22;38515;53.160;6.990;2023-07-13T13:10:17;21.00;98.80
52621;DHT22;38515;53.160;6.990;2023-07-13T13:12:42;20.90;99.70
52621;DHT22;38515;53.160;6.990;2023-07-13T13:15:10;20.90;99.60
52621;DHT22;38515;53.160;6.990;2023-07-13T13:17:37;21.10;99.10
52621;DHT22;38515;53.160;6.990;2023-07-13T13:20:18;21.20;99.40
52621;DHT22;38515;53.160;6.990;2023-07-13T13:22:45;21.50;98.60
52621;DHT22;38515;53.160;6.990;2023-07-13T13:25:15;21.50;99.80
52621;DHT22;38515;53.160;6.990;2023-07-13T13:27:42;21.40;99.60
52621;DHT22;38515;53.160;6.990;2023-07-13T13:30:15;21.30;99.60
52621;DHT22;38515;53.160;6.990;2023-07-13T13:32:47;21.00;99.20
52621;DHT22;38515;53.160;6.990;2023-07-13T13:35:18;20.90;99.70
52621;DHT22;38515;53.160;6.990;2023-07-13T13:37:45;20.90;98.80
52621;DHT22;38515;53.160;6.990;2023-07-13T13:40:21;21.00;99.50
52621;DHT22;38515;53.160;6.990;2023-07-13T13:42:53;21.10;98.90
52621;DHT22;38515;53.160;6.990;2023-07-13T13:45:24;21.10;99.80
52621;DHT22;38515;53.160;6.990;2023-07-13T13:47:50;21.00;99.70
52621;DHT22;38515;53.160;6.990;2023-07-13T13:50:21;21.00;99.70
52621;DHT22;38515;53.160;6.990;2023-07-13T13:52:49;21.20;99.30
52621;DHT22;38515;53.160;6.990;2023-07-13T13:55:21;21.50;99.40
52621;DHT22;38515;53.160;6.990;2023-07-13T13:57:47;21.70;98.30
52621;DHT22;38515;53.160;6.990;2023-07-13T14:00:15;21.70;98.60
52621;DHT22;38515;53.160;6.990;2023-07-13T14:02:46;21.60;98.30
52621;DHT22;38515;53.160;6.990;2023-07-13T14:05:15;21.50;98.10
52621;DHT22;38515;53.160;6.990;2023-07-13T14:07:46;21.40;98.60
52621;DHT22;38515;53.160;6.990;2023-07-13T14:10:15;21.30;98.80
52621;DHT22;38515;53.160;6.990;2023-07-13T14:12:43;21.30;99.40
52621;DHT22;38515;53.160;6.990;2023-07-13T14:15:24;21.30;99.50
52621;DHT22;38515;53.160;6.990;2023-07-13T14:17:51;21.40;96.00
52621;DHT22;38515;53.160;6.990;2023-07-13T14:20:22;21.40;98.50
52621;DHT22;38515;53.160;6.990;2023-07-13T14:22:50;21.40;97.30
52621;DHT22;38515;53.160;6.990;2023-07-13T14:25:20;21.30;99.00
52621;DHT22;38515;53.160;6.990;2023-07-13T14:27:51;21.30;99.20
52621;DHT22;38515;53.160;6.990;2023-07-13T14:30:21;21.30;99.00
52621;DHT22;38515;53.160;6.990;2023-07-13T14:32:48;21.20;99.10
52621;DHT22;38515;53.160;6.990;2023-07-13T14:35:16;21.30;98.80
52621;DHT22;38515;53.160;6.990;2023-07-13T14:37:43;21.20;99.00
52621;DHT22;38515;53.160;6.990;2023-07-13T14:40:29;21.20;99.20
52621;DHT22;38515;53.160;6.990;2023-07-13T14:43:02;21.30;98.60
52621;DHT22;38515;53.160;6.990;2023-07-13T14:45:29;21.30;98.90
52621;DHT22;38515;53.160;6.990;2023-07-13T14:47:56;21.30;99.00
52621;DHT22;38515;53.160;6.990;2023-07-13T14:50:29;21.30;99.40
52621;DHT22;38515;53.160;6.990;2023-07-13T14:52:55;21.30;99.30
52621;DHT22;38515;53.160;6.990;2023-07-13T14:55:21;21.20;99.70
52621;DHT22;38515;53.160;6.990;2023-07-13T14:57:48;21.10;99.60
52621;DHT22;38515;53.160;6.990;2023-07-13T15:00:18;21.20;99.50
52621;DHT22;38515;53.160;6.990;2023-07-13T15:02:52;21.10;99.40
52621;DHT22;38515;53.160;6.990;2023-07-13T15:05:21;21.10;99.30
52621;DHT22;38515;53.160;6.990;2023-07-13T15:07:49;21.00;99.30
52621;DHT22;38515;53.160;6.990;2023-07-13T15:10:19;21.10;99.90
52621;DHT22;38515;53.160;6.990;2023-07-13T15:12:45;21.20;99.90
52621;DHT22;38515;53.160;6.990;2023-07-13T15:15:12;21.40;99.90
52621;DHT22;38515;53.160;6.990;2023-07-13T15:17:44;21.50;99.70
52621;DHT22;38515;53.160;6.990;2023-07-13T15:20:21;21.70;99.60
52621;DHT22;38515;53.160;6.990;2023-07-13T15:22:49;21.70;99.50
52621;DHT22;38515;53.160;6.990;2023-07-13T15:25:18;21.80;99.70
52621;DHT22;38515;53.160;6.990;2023-07-13T15:27:47;21.80;98.90
52621;DHT22;38515;53.160;6.990;2023-07-13T15:30:14;21.60;98.70
52621;DHT22;38515;53.160;6.990;2023-07-13T15:32:44;21.70;99.00
52621;DHT22;38515;53.160;6.990;2023-07-13T15:35:26;21.80;98.10
52621;DHT22;38515;53.160;6.990;2023-07-13T15:37:52;21.80;99.00
52621;DHT22;38515;53.160;6.990;2023-07-13T15:40:18;21.70;99.10
52621;DHT22;38515;53.160;6.990;2023-07-13T15:42:47;21.50;99.40
52621;DHT22;38515;53.160;6.990;2023-07-13T15:45:24;21.30;99.30
52621;DHT22;38515;53.160;6.990;2023-07-13T15:47:50;21.10;98.10
52621;DHT22;38515;53.160;6.990;2023-07-13T15:50:24;21.00;99.00
52621;DHT22;38515;53.160;6.990;2023-07-13T15:52:54;21.10;99.20
52621;DHT22;38515;53.160;6.990;2023-07-13T15:55:21;21.20;99.50
52621;DHT22;38515;53.160;6.990;2023-07-13T15:57:49;21.50;98.90
52621;DHT22;38515;53.160;6.990;2023-07-13T16:00:23;21.60;98.20
52621;DHT22;38515;53.160;6.990;2023-07-13T16:02:51;21.50;98.10
52621;DHT22;38515;53.160;6.990;2023-07-13T16:05:18;21.30;98.80
52621;DHT22;38515;53.160;6.990;2023-07-13T16:07:49;21.30;98.90
52621;DHT22;38515;53.160;6.990;2023-07-13T16:10:19;21.40;97.80
52621;DHT22;38515;53.160;6.990;2023-07-13T16:12:46;21.30;98.20